• Join FlightAware (Why Join?)
  • Login
  • US Flag 
10:49PM EDT


 

Airport Tracker/Info


-or-


 

Live Flight TrackerFlight Track Log ✈ SWA55 ✈ 25-Apr-2012 ✈ KSEA - KLAS

Flight Track Log - Related Links

Times and Time Zones

All times are in EDT time to prevent confusion due to time zone crossing. See the SWA55 flight status page for this flight to view local times or setup timezone preferences in your user account.

Time Position Orientation Groundspeed Altitude Reporting Facility
EDT Latitude Longitude Course Direction KTS MPH feet Rate Location/Type
12:52PM 47.4278 -122.3078 180° South 195 224 1,300  Level Seattle Center
12:54PM 47.3681 -122.3081 180° South 202 232 3,500 2,460 Climbing Seattle Center
12:55PM 47.2764 -122.3086 168° South 234 269 7,800 2,700 Climbing Seattle Center
12:56PM 47.2125 -122.2883 142° Southeast 258 297 10,300 1,560 Climbing Seattle Center
12:57PM 47.1447 -122.2111 159° South 325 374 11,000 1,560 Climbing Seattle Center
12:58PM 47.0572 -122.1625 164° South 336 387 13,500 2,280 Climbing Seattle Center
12:59PM 46.9669 -122.1250 165° South 342 394 15,700 2,040 Climbing Seattle Center
01:00PM 46.8719 -122.0878 166° South 354 407 17,700 2,220 Climbing Seattle Center
01:01PM 46.7525 -122.0428 165° South 370 426 20,300 1,980 Climbing Seattle Center
01:02PM 46.6519 -122.0036 165° South 377 434 21,800 1,440 Climbing Seattle Center
01:03PM 46.5478 -121.9642 165° South 388 447 23,300 1,380 Climbing Seattle Center
01:04PM 46.4417 -121.9225 165° South 396 456 24,700 1,500 Climbing Seattle Center
01:05PM 46.3344 -121.8806 165° South 401 461 26,400 1,680 Climbing Seattle Center
01:06PM 46.2286 -121.8408 165° South 399 459 28,200 1,620 Climbing Seattle Center
01:07PM 46.1186 -121.7981 166° South 388 447 29,800 1,440 Climbing Seattle Center
01:08PM 46.0167 -121.7606 165° South 382 440 31,200 1,260 Climbing Seattle Center
01:09PM 45.9175 -121.7219 165° South 376 433 32,400 1,140 Climbing Seattle Center
01:10PM 45.8181 -121.6842 165° South 374 430 33,600 900 Climbing Seattle Center
01:11PM 45.6975 -121.6383 166° South 375 432 34,300 660 Climbing Seattle Center
01:12PM 45.5961 -121.6011 166° South 378 435 35,000 300 Climbing Seattle Center
01:13PM 45.4933 -121.5642 165° South 381 438 35,000  Level Seattle Center
01:14PM 45.3903 -121.5256 165° South 385 443 35,000  Level Seattle Center
01:15PM 45.2875 -121.4867 165° South 386 444 35,000  Level Seattle Center
01:16PM 45.1856 -121.4486 165° South 383 441 35,000  Level Seattle Center
01:17PM 45.0850 -121.4114 166° South 379 436 35,000  Level Seattle Center
01:18PM 44.9839 -121.3750 165° South 379 436 35,000  Level Seattle Center
01:19PM 44.8644 -121.3314 166° South 375 432 35,000  Level Seattle Center
01:21PM 44.7653 -121.2953 166° South 372 428 35,000  Level Seattle Center
01:22PM 44.6658 -121.2597 165° South 372 428 35,000  Level Seattle Center
01:23PM 44.5569 -121.2200 166° South 372 428 35,000  Level Seattle Center
01:24PM 44.4558 -121.1842 166° South 374 430 35,000  Level Seattle Center
01:25PM 44.3547 -121.1486 165° South 373 429 35,000  Level Seattle Center
01:26PM 44.2675 -121.1167 166° South 374 430 35,000  Level Seattle Center
01:27PM 44.1461 -121.0747 166° South 376 433 35,000  Level Seattle Center
01:28PM 44.0444 -121.0394 166° South 378 435 35,000  Level Seattle Center
01:29PM 43.9444 -121.0039 166° South 376 433 35,000  Level Seattle Center
01:30PM 43.8442 -120.9683 166° South 375 432 35,000  Level Seattle Center
01:31PM 43.7439 -120.9344 166° South 374 430 35,000  Level Seattle Center
01:32PM 43.6417 -120.8989 166° South 379 436 35,000  Level Seattle Center
01:33PM 43.5264 -120.8597 165° South 381 438 35,000  Level Seattle Center
01:34PM 43.4236 -120.8231 167° South 381 438 35,000  Level Seattle Center
01:35PM 43.3233 -120.7906 166° South 374 430 35,000  Level Seattle Center
01:36PM 43.2225 -120.7556 166° South 373 429 35,000  Level Seattle Center
01:37PM 43.1208 -120.7206 166° South 375 432 35,000  Level Seattle Center
01:38PM 43.0194 -120.6864 166° South 374 430 35,000  Level Seattle Center
01:39PM 42.9183 -120.6525 166° South 374 430 35,000  Level Seattle Center
01:40PM 42.8181 -120.6186 165° South 370 426 35,000  Level Seattle Center
01:41PM 42.7392 -120.5894 165° South 369 425 35,000  Level Seattle Center
01:42PM 42.6183 -120.5447 169° South 372 428 35,000  Level Seattle Center
01:43PM 42.5167 -120.5167 167° South 373 429 35,000  Level Seattle Center
01:44PM 42.4153 -120.4853 167° South 372 428 35,000  Level Seattle Center
01:45PM 42.2953 -120.4489 167° South 369 425 35,000  Level Seattle Center
01:46PM 42.1947 -120.4186 168° South 369 425 35,000  Level Seattle Center
01:47PM 42.0950 -120.3892 167° South 367 422 35,000  Level Seattle Center
01:49PM 41.8942 -120.3283 168° South 369 425 35,000  Level Seattle Center
01:50PM 41.7897 -120.2975 168° South 377 434 35,000  Level Seattle Center
01:51PM 41.6842 -120.2672 167° South 382 440 35,000  Level Seattle Center
01:52PM 41.5800 -120.2361 168° South 384 442 35,000  Level Seattle Center
01:53PM 41.4778 -120.2069 168° South 380 437 35,000  Level Seattle Center
01:54PM 41.3764 -120.1781 167° South 374 430 35,000  Level Seattle Center
01:55PM 41.2758 -120.1481 168° South 372 428 35,000  Level Seattle Center
01:56PM 41.1758 -120.1197 163° South 369 425 35,000  Level Seattle Center
01:57PM 41.0567 -120.0711 161° South 375 432 35,000  Level Seattle Center
01:58PM 40.9592 -120.0264 161° South 374 430 35,000  Level Seattle Center
01:59PM 40.8611 -119.9828 161° South 372 428 35,000  Level Seattle Center
02:00PM 40.7636 -119.9392 162° South 371 427 35,000  Level Seattle Center
02:01PM 40.6667 -119.8967 162° South 368 423 35,000  Level Seattle Center
02:02PM 40.5708 -119.8547 162° South 367 422 35,000  Level Seattle Center
02:03PM 40.4744 -119.8131 161° South 366 421 35,000  Level Seattle Center
02:04PM 40.3775 -119.7700 161° South 366 421 35,000  Level Seattle Center
02:05PM 40.2811 -119.7275 162° South 366 421 35,000  Level Seattle Center
02:06PM 40.1831 -119.6850 162° South 369 425 35,000  Level Seattle Center
02:07PM 40.0653 -119.6350 162° South 370 426 35,000  Level Seattle Center
02:09PM 39.9464 -119.5842 161° South 368 423 35,000  Level Oakland Center
02:10PM 39.8458 -119.5403 163° South 368 423 35,000  Level Oakland Center
02:11PM 39.7453 -119.4992 161° South 374 430 35,000  Level Oakland Center
02:12PM 39.6467 -119.4553 162° South 374 430 35,000  Level Oakland Center
02:13PM 39.5481 -119.4144 162° South 374 430 35,000  Level Oakland Center
02:14PM 39.4497 -119.3736 161° South 374 430 35,000  Level Oakland Center
02:15PM 39.3511 -119.3300 162° South 374 430 35,000  Level Oakland Center
02:16PM 39.2525 -119.2894 145° Southeast 374 430 35,000  Level Oakland Center
02:17PM 39.1658 -119.2111 139° Southeast 374 430 35,000  Level Oakland Center
02:18PM 39.0831 -119.1194 140° Southeast 380 437 35,000  Level Oakland Center
02:19PM 39.0067 -119.0361 140° Southeast 391 450 35,000  Level Oakland Center
02:20PM 38.9258 -118.9475 140° Southeast 391 450 35,000  Level Oakland Center
02:21PM 38.8431 -118.8592 140° Southeast 391 450 35,000  Level Oakland Center
02:22PM 38.7622 -118.7708 140° Southeast 391 450 35,000  Level Oakland Center
02:23PM 38.6792 -118.6831 140° Southeast 386 444 35,000  Level Oakland Center
02:24PM 38.5961 -118.5953 140° Southeast 386 444 35,000  Level Oakland Center
02:25PM 38.5128 -118.5050 140° Southeast 386 444 35,000  Level Oakland Center
02:26PM 38.4317 -118.4178 141° Southeast 386 444 35,000  Level Oakland Center
02:27PM 38.3464 -118.3306 139° Southeast 386 444 35,000  Level Oakland Center
02:28PM 38.2650 -118.2411 142° Southeast 386 444 35,000  Level Oakland Center
02:29PM 38.1817 -118.1569 140° Southeast 386 444 35,000  Level Oakland Center
02:30PM 38.0917 -118.0600 141° Southeast 386 444 35,000  Level Oakland Center
02:31PM 38.0083 -117.9739 142° Southeast 386 444 35,000  Level Oakland Center
02:32PM 37.9247 -117.8903 140° Southeast 386 444 35,000 -360 Level Oakland Center
02:33PM 37.8411 -117.8017 141° Southeast 386 444 34,300 -840 Descending Oakland Center
02:34PM 37.7550 -117.7133 141° Southeast 386 444 33,400 -660 Descending Oakland Center
02:35PM 37.6692 -117.6256 141° Southeast 386 444 33,000 -180 Descending Oakland Center
02:37PM 37.4831 -117.4369 141° Southeast 389 448 33,000  Level Los Angeles Center
02:38PM 37.3967 -117.3494 142° Southeast 394 453 33,000  Level Los Angeles Center
02:39PM 37.3097 -117.2644 141° Southeast 394 453 33,000  Level Los Angeles Center
02:40PM 37.2250 -117.1772 142° Southeast 394 453 33,000  Level Los Angeles Center
02:41PM 37.1403 -117.0928 141° Southeast 389 448 33,000  Level Los Angeles Center
02:42PM 37.0575 -117.0083 141° Southeast 389 448 33,000  Level Los Angeles Center
02:43PM 36.9728 -116.9217 144° Southeast 389 448 33,000  Level Los Angeles Center
02:44PM 36.9042 -116.8586 140° Southeast 389 448 33,000 -300 Level Los Angeles Center
02:45PM 36.8028 -116.7539 131° Southeast 389 448 32,400 -900 Descending Los Angeles Center
02:46PM 36.7303 -116.6497 133° Southeast 389 448 31,200 -1,440 Descending Los Angeles Center
02:47PM 36.6700 -116.5692 131° Southeast 394 453 29,600 -1,980 Descending Los Angeles Center
02:48PM 36.5972 -116.4653 129° Southeast 394 453 27,300 -2,520 Descending Los Angeles Center
02:49PM 36.5122 -116.3358 132° Southeast 400 460 24,600 -2,460 Descending Los Angeles Center
02:50PM 36.4392 -116.2347 133° Southeast 405 466 22,400 -1,980 Descending Los Angeles Center
02:51PM 36.3767 -116.1522 132° Southeast 388 447 20,700 -1,920 Descending Los Angeles Center
02:52PM 36.3100 -116.0594 131° Southeast 377 434 18,600 -2,220 Descending Los Angeles Center
02:53PM 36.2369 -115.9564 130° Southeast 368 423 16,300 -1,680 Descending Los Angeles Center
02:53PM 36.1992 -115.9000 112° Southeast 347 399 16,000 -300 Descending Los Angeles Center
02:54PM 36.1719 -115.8178 109° East 333 383 15,900  Descending Los Angeles Center
02:55PM 36.1531 -115.7508 115° Southeast 335 386 16,000 -300 Climbing Los Angeles Center
02:55PM 36.1319 -115.6944 110° East 336 387 15,600 -1,440 Descending Los Angeles Center
02:56PM 36.1003 -115.5892 112° Southeast 335 386 13,800 -1,680 Descending Los Angeles Center
02:57PM 36.0664 -115.4867 111° Southeast 328 377 12,200 -1,380 Descending Los Angeles Center
02:58PM 36.0344 -115.3817 97° East 318 366 11,000 -1,140 Descending Los Angeles Center
02:59PM 36.0233 -115.2714 96° East 280 322 9,900 -1,080 Descending Los Angeles Center
03:00PM 36.0164 -115.1842 95° East 282 325 8,900 -1,020 Descending Los Angeles Center
03:02PM 36.0094 -115.0814 94° East 268 308 7,900 -1,140 Descending Los Angeles Center
03:03PM 36.0042 -114.9789 84° East 275 316 6,400 -780 Descending Los Angeles Center
03:03PM 36.0100 -114.9094 348° North 255 293 6,500 -600 Climbing Los Angeles Center
03:04PM 36.0642 -114.9242 278° West 211 243 5,300 -1,140 Descending Los Angeles Center
03:06PM 36.0733 -115.0036 271° West 102 117 3,900 -960 Descending Los Angeles Center
03:07PM 36.0739 -115.0600 271° West 142 163 3,100 -900 Descending Los Angeles Center
03:08PM 36.0744 -115.1167 271° West 150 173 2,300 -540 Descending Los Angeles Center
03:09PM 36.0747 -115.1500 279° West 145 167 2,100 -120 Descending Los Angeles Center
03:10PM 36.0767 -115.1653 70° East 82 94 2,100 -60 Level Los Angeles Center
03:11PM 36.0789 -115.1578 270° West 48 55 2,000 240 Descending Los Angeles Center
03:12PM 36.0789 -115.1756 93° East 48 55 2,600 600 Climbing Los Angeles Center
03:20PM 36.0667 -114.8560 270° West  Level FlightAware Approximate
03:21PM 36.0667 -114.9834 270° West  Level FlightAware Approximate
03:22PM 36.0667 -115.1108 270° West  Level FlightAware Approximate